Time;durP1;ratioP1;P1;durP2;ratioP2;P2;SDS_P1;SDS_P2;PMS_P1;PMS_P2;Temp;Humidity;BMP_temperature;BMP_pressure;BME280_temperature;BME280_humidity;BME280_pressure;Samples;Min_cycle;Max_cycle;Signal;HPM_P1;HPM_P2
2023/07/02 00:01:10;;;;;;;4.88;3.55;;;15.10;99.90;;;14.78;100.00;96675.47;5058290;28;20029;-36
2023/07/02 00:03:43;;;;;;;4.82;3.67;;;15.10;99.90;;;14.80;100.00;96682.38;5061709;28;20036;-37
2023/07/02 00:06:09;;;;;;;4.60;3.78;;;15.10;99.90;;;14.80;100.00;96685.03;5056820;28;20070;-37
2023/07/02 00:08:35;;;;;;;4.35;3.38;;;15.00;99.90;;;14.80;100.00;96690.34;5063696;28;20386;-37
2023/07/02 00:11:00;;;;;;;5.75;3.97;;;15.10;99.90;;;14.75;100.00;96679.19;5057184;28;20071;-37
2023/07/02 00:13:26;;;;;;;5.60;3.72;;;15.00;99.90;;;14.73;100.00;96682.88;5057915;28;20754;-37
2023/07/02 00:15:52;;;;;;;5.03;3.67;;;15.00;99.90;;;14.68;100.00;96689.34;5065398;28;20029;-37
2023/07/02 00:18:17;;;;;;;3.75;3.33;;;14.90;99.90;;;14.61;100.00;96684.56;5060402;28;20054;-37
2023/07/02 00:20:43;;;;;;;3.78;3.45;;;14.90;99.90;;;14.56;100.00;96687.47;5064059;28;20258;-37
2023/07/02 00:23:09;;;;;;;4.63;3.75;;;14.80;99.90;;;14.56;100.00;96687.47;5063383;28;20027;-37
2023/07/02 00:25:36;;;;;;;4.32;3.47;;;14.80;99.90;;;14.49;100.00;96689.66;5063847;28;20036;-37
2023/07/02 00:28:02;;;;;;;4.63;3.83;;;14.80;99.90;;;14.45;100.00;96689.97;5065820;28;20106;-37
2023/07/02 00:30:28;;;;;;;7.05;3.90;;;14.70;99.90;;;14.39;100.00;96675.28;5062918;28;20105;-35
2023/07/02 00:32:54;;;;;;;4.47;3.58;;;14.80;99.90;;;14.51;100.00;96694.84;5063091;28;20041;-35
2023/07/02 00:35:19;;;;;;;4.57;3.85;;;14.80;99.90;;;14.55;100.00;96691.06;5064244;28;20039;-35
2023/07/02 00:37:45;;;;;;;4.03;3.40;;;14.80;99.90;;;14.56;100.00;96694.56;5061959;28;20040;-35
2023/07/02 00:40:11;;;;;;;4.05;3.65;;;14.80;99.90;;;14.60;100.00;96696.94;5065974;28;20303;-35
2023/07/02 00:42:37;;;;;;;7.40;3.83;;;14.90;99.90;;;14.58;100.00;96693.53;5071651;28;20489;-35
2023/07/02 00:45:03;;;;;;;4.57;3.40;;;14.90;99.90;;;14.63;100.00;96694.09;5068126;28;20036;-35
2023/07/02 00:47:33;;;;;;;4.03;3.10;;;14.90;99.90;;;14.67;100.00;96694.75;5067985;28;20044;-35
2023/07/02 00:49:59;;;;;;;4.85;3.83;;;15.00;99.90;;;14.64;100.00;96698.47;5072900;28;20025;-35
2023/07/02 00:52:25;;;;;;;5.43;3.90;;;15.00;99.90;;;14.63;100.00;96691.47;5066443;28;20031;-35
2023/07/02 00:54:51;;;;;;;4.40;3.70;;;14.90;99.90;;;14.68;100.00;96693.81;5065781;28;20072;-35
2023/07/02 00:57:17;;;;;;;5.05;3.65;;;15.00;99.90;;;14.65;100.00;96694.00;5066085;28;20549;-35
2023/07/02 00:59:43;;;;;;;4.00;3.53;;;15.00;99.90;;;14.63;100.00;96686.16;5064399;28;20032;-35
2023/07/02 01:02:10;;;;;;;4.28;3.38;;;14.90;99.90;;;14.57;100.00;96685.66;5065130;28;20059;-35
2023/07/02 01:04:36;;;;;;;4.85;3.30;;;14.90;99.90;;;14.55;100.00;96688.41;5067730;28;20017;-35
2023/07/02 01:07:08;;;;;;;4.20;3.20;;;14.90;99.90;;;14.57;100.00;96693.59;5062756;28;20070;-35
2023/07/02 01:09:34;;;;;;;5.05;3.30;;;14.90;99.90;;;14.64;100.00;96695.81;5062861;28;20072;-35
2023/07/02 01:12:03;;;;;;;7.10;3.60;;;14.90;99.90;;;14.65;100.00;96705.47;5067925;28;20542;-35
2023/07/02 01:14:34;;;;;;;5.93;3.17;;;14.90;99.90;;;14.63;100.00;96707.38;5064436;28;20557;-35
2023/07/02 01:17:03;;;;;;;5.18;3.20;;;14.90;99.90;;;14.66;100.00;96709.84;5066006;28;20712;-35
2023/07/02 01:19:44;;;;;;;4.15;3.28;;;15.00;99.90;;;14.66;100.00;96699.22;5065699;28;20029;-35
2023/07/02 01:22:11;;;;;;;5.50;3.10;;;15.00;99.90;;;14.65;100.00;96708.13;5072089;28;20024;-35
2023/07/02 01:24:39;;;;;;;4.95;3.00;;;14.90;99.90;;;14.62;100.00;96712.78;5063986;28;20436;-35
2023/07/02 01:27:05;;;;;;;6.45;2.92;;;14.90;99.90;;;14.51;100.00;96706.31;5062324;28;20020;-35
2023/07/02 01:29:31;;;;;;;3.80;3.22;;;14.80;99.90;;;14.39;100.00;96692.97;5066132;28;20482;-35
2023/07/02 01:31:57;;;;;;;4.38;3.28;;;14.70;99.90;;;14.33;100.00;96696.88;5063247;28;20444;-35
2023/07/02 01:34:23;;;;;;;3.50;3.20;;;14.70;99.90;;;14.41;100.00;96705.22;5062976;28;20399;-35
2023/07/02 01:36:49;;;;;;;4.32;3.05;;;14.70;99.90;;;14.30;100.00;96694.41;5062165;28;20074;-37
2023/07/02 01:39:15;;;;;;;4.50;3.53;;;14.60;99.90;;;14.25;100.00;96705.34;5063433;28;20033;-37
2023/07/02 01:41:53;;;;;;;4.25;3.13;;;14.60;99.90;;;14.19;100.00;96699.56;5062733;28;20028;-37
2023/07/02 01:44:19;;;;;;;4.38;3.05;;;14.50;99.90;;;14.07;100.00;96682.63;5067407;28;20398;-37
2023/07/02 01:46:49;;;;;;;4.40;3.03;;;14.50;99.90;;;13.98;100.00;96677.88;5066702;28;20035;-37
2023/07/02 01:49:16;;;;;;;5.57;3.38;;;14.40;99.90;;;14.02;100.00;96682.91;5066426;28;20062;-37
2023/07/02 01:51:48;;;;;;;4.45;3.00;;;14.40;99.90;;;14.03;100.00;96686.41;5067161;28;20036;-37
2023/07/02 01:54:14;;;;;;;2.85;2.63;;;14.30;99.90;;;13.99;100.00;96683.09;5067430;28;20119;-37
2023/07/02 01:56:40;;;;;;;3.70;3.20;;;14.30;99.90;;;13.92;100.00;96690.56;5062252;28;20036;-37
2023/07/02 01:59:06;;;;;;;5.00;3.35;;;14.20;99.90;;;13.94;100.00;96701.06;5063003;28;20040;-37
2023/07/02 02:01:32;;;;;;;5.20;3.03;;;14.20;99.90;;;13.89;100.00;96690.75;5067586;28;20028;-37
2023/07/02 02:03:58;;;;;;;3.35;3.05;;;14.20;99.90;;;13.90;100.00;96699.56;5069152;28;20020;-37
2023/07/02 02:06:24;;;;;;;8.10;3.40;;;14.20;99.90;;;13.90;100.00;96704.84;5065347;28;20044;-37
2023/07/02 02:08:50;;;;;;;4.20;3.50;;;14.20;99.90;;;13.90;100.00;96705.69;5052375;28;20044;-37
2023/07/02 02:11:15;;;;;;;7.30;3.70;;;14.20;99.90;;;13.96;100.00;96704.47;5060271;28;20517;-37
2023/07/02 02:13:41;;;;;;;5.15;3.08;;;14.20;99.90;;;13.99;100.00;96719.34;5064520;28;20039;-37
2023/07/02 02:16:07;;;;;;;4.22;3.20;;;14.30;99.90;;;14.02;100.00;96719.16;5072291;28;20047;-37
2023/07/02 02:18:33;;;;;;;3.78;2.90;;;14.30;99.90;;;14.07;100.00;96717.09;5063959;28;20052;-37
2023/07/02 02:20:58;;;;;;;3.80;2.92;;;14.40;99.90;;;14.13;100.00;96706.94;5066443;28;20028;-37
2023/07/02 02:23:24;;;;;;;4.88;2.83;;;14.40;99.90;;;14.20;100.00;96712.72;5062217;28;20389;-37
2023/07/02 02:25:50;;;;;;;4.68;2.78;;;14.50;99.90;;;14.28;100.00;96723.72;5061532;28;20036;-37
2023/07/02 02:28:15;;;;;;;3.25;2.67;;;14.50;99.90;;;14.35;100.00;96710.06;5061883;28;22961;-37
2023/07/02 02:30:41;;;;;;;2.88;2.30;;;14.60;99.90;;;14.41;100.00;96712.31;5064098;28;20040;-37
2023/07/02 02:33:07;;;;;;;2.97;2.42;;;14.70;99.90;;;14.47;100.00;96707.47;5062598;28;20493;-37
2023/07/02 02:35:32;;;;;;;3.65;2.70;;;14.70;99.90;;;14.52;100.00;96707.19;5066224;28;20060;-37
2023/07/02 02:38:02;;;;;;;2.67;2.47;;;14.80;99.90;;;14.56;100.00;96706.03;5062241;28;20032;-37
2023/07/02 02:40:28;;;;;;;3.55;2.80;;;14.90;99.90;;;14.60;100.00;96710.22;5066104;28;20028;-37
2023/07/02 02:42:54;;;;;;;3.72;2.75;;;14.90;99.90;;;14.64;100.00;96716.19;5066831;28;20024;-37
2023/07/02 02:45:19;;;;;;;3.67;2.92;;;14.90;99.90;;;14.65;100.00;96713.44;5063341;28;20059;-38
2023/07/02 02:47:46;;;;;;;3.38;2.70;;;14.90;99.90;;;14.59;100.00;96702.34;5063537;28;20115;-37
2023/07/02 02:50:13;;;;;;;4.32;3.20;;;15.00;99.90;;;14.63;100.00;96715.34;5065334;28;20127;-37
2023/07/02 02:52:39;;;;;;;6.57;2.90;;;14.90;99.90;;;14.62;100.00;96712.78;5068515;28;20397;-37
2023/07/02 02:55:07;;;;;;;9.32;3.25;;;14.90;99.90;;;14.63;100.00;96715.34;5062244;28;20108;-37
2023/07/02 02:57:33;;;;;;;9.93;3.10;;;15.00;99.90;;;14.65;100.00;96715.25;5063915;28;20031;-37
2023/07/02 02:59:59;;;;;;;5.32;2.75;;;15.00;99.90;;;14.69;100.00;96716.75;5063004;28;20461;-37
2023/07/02 03:02:25;;;;;;;4.40;3.05;;;15.00;99.90;;;14.73;100.00;96722.69;5062948;28;20115;-37
2023/07/02 03:04:51;;;;;;;5.10;2.97;;;15.00;99.90;;;14.75;100.00;96724.31;5065029;28;20056;-37
2023/07/02 03:07:17;;;;;;;6.00;2.80;;;15.00;99.90;;;14.67;100.00;96718.66;5063793;28;20029;-37
2023/07/02 03:09:43;;;;;;;4.00;3.00;;;15.00;99.90;;;14.73;100.00;96733.31;5064385;28;20043;-35
2023/07/02 03:12:09;;;;;;;6.38;3.25;;;15.00;99.90;;;14.59;100.00;96727.09;5063696;28;20047;-35
2023/07/02 03:14:34;;;;;;;5.15;2.50;;;15.00;99.90;;;14.66;100.00;96739.03;5069214;28;20501;-35
2023/07/02 03:17:00;;;;;;;4.78;2.95;;;15.00;99.90;;;14.54;100.00;96729.16;5065124;28;20102;-36
2023/07/02 03:19:26;;;;;;;5.60;2.90;;;14.90;99.90;;;14.63;100.00;96744.53;5060172;28;20036;-35
2023/07/02 03:21:52;;;;;;;4.90;3.10;;;14.90;99.90;;;14.59;100.00;96750.97;5060591;28;20043;-35
2023/07/02 03:24:18;;;;;;;3.78;2.63;;;14.90;99.90;;;14.58;100.00;96759.88;5062810;28;20064;-35
2023/07/02 03:26:44;;;;;;;7.82;3.22;;;14.90;99.90;;;14.56;100.00;96755.59;5062710;28;20123;-35
2023/07/02 03:29:11;;;;;;;3.72;3.33;;;14.80;99.90;;;14.53;100.00;96753.97;5062238;28;20039;-36
2023/07/02 03:31:37;;;;;;;4.30;3.05;;;14.80;99.90;;;14.49;100.00;96760.44;5067185;28;20032;-35
2023/07/02 03:34:08;;;;;;;4.88;4.15;;;14.80;99.90;;;14.38;100.00;96755.81;5068525;28;20035;-35
2023/07/02 03:36:35;;;;;;;6.95;3.78;;;14.80;99.90;;;14.39;100.00;96775.22;5058839;28;20024;-35
2023/07/02 03:39:00;;;;;;;5.07;3.40;;;14.70;99.90;;;14.37;100.00;96771.81;5063003;28;20346;-36
2023/07/02 03:41:26;;;;;;;8.23;3.90;;;14.70;99.90;;;14.28;100.00;96774.09;5060686;28;20035;-35
2023/07/02 03:43:52;;;;;;;7.50;3.70;;;14.60;99.90;;;14.27;100.00;96769.72;5063708;28;20044;-35
2023/07/02 03:46:17;;;;;;;5.80;3.40;;;14.60;99.90;;;14.23;100.00;96773.53;5062684;28;20440;-35
2023/07/02 03:48:43;;;;;;;3.60;3.30;;;14.50;99.90;;;14.21;100.00;96774.56;5061051;28;20394;-35
2023/07/02 03:51:12;;;;;;;6.10;4.10;;;14.50;99.90;;;14.20;100.00;96776.34;5064752;28;20033;-35
2023/07/02 03:53:38;;;;;;;6.50;3.95;;;14.50;99.90;;;14.20;100.00;96780.81;5066605;28;20024;-35
2023/07/02 03:56:04;;;;;;;5.57;3.53;;;14.50;99.90;;;14.17;100.00;96783.66;5060461;28;20403;-35
2023/07/02 03:58:29;;;;;;;8.93;3.97;;;14.50;99.90;;;14.23;100.00;96796.53;5062095;28;20133;-35
2023/07/02 04:00:55;;;;;;;6.72;4.05;;;14.50;99.90;;;14.21;100.00;96806.38;5061451;28;20477;-35
2023/07/02 04:03:21;;;;;;;6.32;4.28;;;14.50;99.90;;;14.16;100.00;96795.19;5059462;28;20470;-35
2023/07/02 04:05:46;;;;;;;6.22;3.90;;;14.50;99.90;;;14.13;100.00;96805.03;5064087;28;20033;-35
2023/07/02 04:08:12;;;;;;;8.13;4.40;;;14.50;99.90;;;14.12;100.00;96815.75;5063214;28;20058;-35
2023/07/02 04:10:38;;;;;;;9.18;4.05;;;14.50;99.90;;;14.11;100.00;96800.78;5063846;28;20309;-35
2023/07/02 04:13:03;;;;;;;9.35;4.38;;;14.50;99.90;;;14.09;100.00;96818.59;5061874;28;20032;-35
2023/07/02 04:15:29;;;;;;;6.45;3.67;;;14.40;99.90;;;14.06;100.00;96816.97;5064155;28;20497;-35
2023/07/02 04:17:55;;;;;;;8.23;4.28;;;14.40;99.90;;;14.01;100.00;96816.38;5065213;28;20086;-35
2023/07/02 04:20:21;;;;;;;6.05;3.88;;;14.40;99.90;;;14.01;100.00;96812.88;5064984;28;20036;-35
2023/07/02 04:22:47;;;;;;;6.35;4.18;;;14.40;99.90;;;14.00;100.00;96821.78;5063985;28;20024;-35
2023/07/02 04:25:15;;;;;;;6.85;4.15;;;14.40;99.90;;;13.94;100.00;96807.09;5062281;28;20987;-35
2023/07/02 04:27:42;;;;;;;9.18;4.68;;;14.40;99.90;;;13.96;100.00;96809.66;5062718;28;20402;-35
2023/07/02 04:30:09;;;;;;;7.35;4.40;;;14.40;99.90;;;14.02;100.00;96809.31;5064437;28;20025;-35
2023/07/02 04:32:36;;;;;;;7.50;4.45;;;14.40;99.90;;;14.03;100.00;96811.00;5060833;28;20064;-35
2023/07/02 04:35:02;;;;;;;6.25;3.80;;;14.40;99.90;;;14.03;100.00;96806.56;5062158;28;20459;-35
2023/07/02 04:37:28;;;;;;;9.15;4.15;;;14.40;99.90;;;13.94;100.00;96789.41;5059819;28;20356;-35
2023/07/02 04:39:54;;;;;;;5.25;3.40;;;14.40;99.90;;;14.00;100.00;96816.47;5061647;28;20034;-35
2023/07/02 04:42:20;;;;;;;9.57;4.43;;;14.40;99.90;;;13.92;100.00;96835.50;5062593;28;20468;-35
2023/07/02 04:44:46;;;;;;;7.00;3.80;;;14.30;99.90;;;13.88;100.00;96832.16;5062136;28;20029;-35
2023/07/02 04:47:11;;;;;;;10.02;4.18;;;14.20;99.90;;;13.84;100.00;96835.97;5062119;28;20083;-35
2023/07/02 04:49:38;;;;;;;8.18;3.97;;;14.20;99.90;;;13.90;100.00;96830.28;5063443;28;20029;-35
2023/07/02 04:52:04;;;;;;;5.65;3.60;;;14.20;99.90;;;13.96;100.00;96826.41;5063949;28;20167;-35
2023/07/02 04:54:30;;;;;;;13.13;4.60;;;14.20;99.90;;;14.01;100.00;96828.78;5064754;28;20561;-35
2023/07/02 04:56:56;;;;;;;8.45;4.45;;;14.30;99.90;;;14.10;100.00;96825.59;5060272;28;20028;-35
2023/07/02 04:59:21;;;;;;;9.07;4.30;;;14.40;99.90;;;14.25;100.00;96827.31;5064917;28;20109;-35
2023/07/02 05:01:47;;;;;;;5.63;3.88;;;14.50;99.90;;;14.47;100.00;96832.16;5064431;28;20277;-35
2023/07/02 05:04:13;;;;;;;8.70;4.20;;;14.70;99.90;;;14.69;100.00;96839.66;5067578;28;20478;-35
2023/07/02 05:06:39;;;;;;;6.50;3.65;;;14.90;99.90;;;14.72;100.00;96812.09;5060823;28;20115;-35
2023/07/02 05:09:05;;;;;;;5.90;3.88;;;15.10;99.90;;;14.96;100.00;96836.22;5060874;28;20101;-35
2023/07/02 05:11:31;;;;;;;7.80;3.85;;;15.30;99.90;;;15.02;100.00;96843.81;5062570;28;20506;-36
2023/07/02 05:13:56;;;;;;;5.35;3.65;;;15.30;99.90;;;15.12;100.00;96843.22;5062245;28;20159;-35
2023/07/02 05:16:22;;;;;;;7.25;4.65;;;15.40;99.90;;;15.13;100.00;96850.22;5061535;28;20119;-35
2023/07/02 05:18:48;;;;;;;6.43;3.58;;;15.40;99.90;;;15.03;100.00;96847.31;5064775;28;20888;-35
2023/07/02 05:21:18;;;;;;;5.93;3.65;;;15.30;99.90;;;14.97;100.00;96853.03;5062918;28;20028;-36
2023/07/02 05:23:43;;;;;;;8.95;4.28;;;15.30;99.90;;;14.86;100.00;96859.84;5061377;28;20062;-35
2023/07/02 05:26:09;;;;;;;7.07;4.15;;;15.20;99.90;;;14.79;100.00;96860.34;5064061;28;20093;-35
2023/07/02 05:28:35;;;;;;;8.38;3.92;;;15.10;99.90;;;14.71;100.00;96871.41;5065947;28;20056;-35
2023/07/02 05:31:00;;;;;;;7.10;3.95;;;15.00;99.90;;;14.58;100.00;96873.97;5066097;28;20036;-35
2023/07/02 05:33:26;;;;;;;8.70;4.45;;;14.90;99.90;;;14.42;100.00;96849.31;5067101;28;20122;-35
2023/07/02 05:35:52;;;;;;;7.65;3.83;;;14.80;99.90;;;14.49;100.00;96872.72;5063778;28;20083;-35
2023/07/02 05:38:19;;;;;;;6.57;4.30;;;14.80;99.90;;;14.44;100.00;96872.13;5072459;28;20033;-35
2023/07/02 05:40:45;;;;;;;6.38;4.00;;;14.70;99.90;;;14.41;100.00;96869.69;5066107;28;20112;-35
2023/07/02 05:43:11;;;;;;;7.88;4.15;;;14.70;99.90;;;14.37;100.00;96872.59;5064845;28;20028;-35
2023/07/02 05:45:37;;;;;;;6.18;4.25;;;14.70;99.90;;;14.52;100.00;96871.69;5065901;28;20020;-35
2023/07/02 05:48:03;;;;;;;9.65;3.75;;;14.80;99.90;;;14.65;100.00;96875.31;5065635;28;20028;-35
2023/07/02 05:50:29;;;;;;;9.82;4.93;;;14.90;99.90;;;14.76;100.00;96869.34;5072872;28;20048;-35
2023/07/02 05:52:54;;;;;;;7.47;4.32;;;15.00;99.90;;;14.93;100.00;96878.91;5066520;28;20043;-35
2023/07/02 05:55:20;;;;;;;10.43;4.53;;;15.20;99.90;;;15.12;100.00;96888.38;5066338;28;20403;-35
2023/07/02 05:57:46;;;;;;;8.18;4.13;;;15.30;99.90;;;15.27;100.00;96887.38;5063350;28;20036;-35
2023/07/02 06:00:12;;;;;;;8.25;3.85;;;15.50;99.90;;;15.49;100.00;96886.88;5066300;28;20041;-35
2023/07/02 06:02:38;;;;;;;7.50;4.20;;;15.70;99.90;;;15.60;100.00;96887.00;5067641;28;20024;-35
2023/07/02 06:05:05;;;;;;;13.60;5.43;;;15.80;99.90;;;15.64;100.00;96890.31;5067733;28;20081;-36
2023/07/02 06:07:31;;;;;;;6.60;3.67;;;15.90;99.90;;;15.73;100.00;96881.72;5066021;28;20047;-35
2023/07/02 06:09:56;;;;;;;10.20;5.07;;;16.00;99.90;;;15.93;100.00;96892.91;5070922;28;20032;-35
2023/07/02 06:12:22;;;;;;;8.90;4.88;;;16.10;99.90;;;15.94;100.00;96881.31;5063769;28;20040;-35
2023/07/02 06:14:48;;;;;;;9.77;5.07;;;16.30;99.90;;;16.10;100.00;96895.28;5066214;28;20493;-35
2023/07/02 06:17:15;;;;;;;11.50;5.60;;;16.40;99.90;;;16.25;100.00;96901.38;5068549;28;20032;-35
2023/07/02 06:19:40;;;;;;;11.38;5.68;;;16.50;99.90;;;16.27;100.00;96885.31;5068273;28;20371;-35
2023/07/02 06:22:06;;;;;;;9.95;5.40;;;16.60;99.90;;;16.31;100.00;96887.66;5065850;28;20059;-35
2023/07/02 06:24:32;;;;;;;10.52;6.15;;;16.70;99.90;;;16.54;100.00;96901.19;5066602;28;20119;-36
2023/07/02 06:26:58;;;;;;;11.18;5.43;;;16.80;99.90;;;16.90;100.00;96899.59;5062978;28;20495;-35
2023/07/02 06:29:24;;;;;;;13.88;6.63;;;17.10;99.90;;;16.98;100.00;96906.09;5062244;28;20143;-35
2023/07/02 06:31:50;;;;;;;15.20;6.60;;;17.30;99.90;;;16.95;100.00;96892.16;5057332;28;20717;-36
2023/07/02 06:34:16;;;;;;;11.95;6.30;;;17.30;99.90;;;17.01;100.00;96902.34;5062105;28;20032;-36
2023/07/02 06:36:43;;;;;;;11.93;6.75;;;17.20;99.90;;;16.93;100.00;96905.56;5060632;28;20029;-36
2023/07/02 06:39:09;;;;;;;17.30;7.50;;;17.20;99.90;;;16.96;100.00;96915.19;5055895;28;20036;-36
2023/07/02 06:41:35;;;;;;;10.90;6.68;;;17.20;99.90;;;17.12;100.00;96909.59;5065611;28;20401;-36
2023/07/02 06:44:02;;;;;;;14.18;7.53;;;17.30;99.90;;;17.19;100.00;96905.53;5065502;28;20607;-35
2023/07/02 06:46:28;;;;;;;14.20;6.72;;;17.50;99.90;;;17.16;100.00;96911.94;5065225;28;20028;-36
2023/07/02 06:48:55;;;;;;;18.52;7.22;;;17.50;99.90;;;17.02;100.00;96912.06;5066628;28;20341;-36
2023/07/02 06:51:21;;;;;;;17.98;7.30;;;17.40;99.90;;;17.21;100.00;96918.75;5062053;28;20249;-36
2023/07/02 06:53:47;;;;;;;15.82;7.13;;;17.50;99.90;;;17.28;100.00;96912.88;5063758;28;20123;-35
2023/07/02 06:56:13;;;;;;;18.45;7.88;;;17.50;99.90;;;17.19;100.00;96913.50;5065412;28;20127;-35
2023/07/02 06:58:45;;;;;;;10.57;6.80;;;17.50;99.90;;;17.27;100.00;96916.50;5065547;28;20032;-36
2023/07/02 07:01:10;;;;;;;13.73;7.47;;;17.50;99.90;;;17.31;100.00;96922.47;5062152;28;20027;-36
2023/07/02 07:03:36;;;;;;;15.35;7.25;;;17.60;99.90;;;17.29;100.00;96911.06;5068039;28;20037;-36
2023/07/02 07:06:02;;;;;;;11.75;6.22;;;17.60;99.90;;;17.24;100.00;96918.53;5069602;28;20068;-35
2023/07/02 07:08:28;;;;;;;14.13;7.78;;;17.50;99.90;;;17.06;100.00;96924.19;5063999;28;20478;-36
2023/07/02 07:10:54;;;;;;;15.88;7.93;;;17.40;99.90;;;17.15;100.00;96922.69;5066795;28;20048;-35
2023/07/02 07:13:20;;;;;;;15.55;7.55;;;17.50;99.90;;;17.31;100.00;96917.97;5065077;28;20035;-35
2023/07/02 07:15:46;;;;;;;14.13;8.02;;;17.60;99.90;;;17.42;100.00;96919.88;5063816;28;20032;-35
2023/07/02 07:18:12;;;;;;;13.70;7.57;;;17.70;99.90;;;17.46;100.00;96923.16;5066292;28;20036;-36
2023/07/02 07:20:40;;;;;;;20.10;8.25;;;17.80;99.90;;;17.55;100.00;96919.84;5064028;28;20036;-36
2023/07/02 07:23:06;;;;;;;17.60;8.82;;;17.80;99.90;;;17.62;100.00;96923.78;5063844;28;20051;-35
2023/07/02 07:25:31;;;;;;;15.63;8.40;;;17.90;99.90;;;17.66;100.00;96913.72;5063483;28;20052;-36
2023/07/02 07:27:59;;;;;;;17.67;9.95;;;18.00;99.90;;;17.47;100.00;96920.38;5060527;28;20077;-36
2023/07/02 07:30:25;;;;;;;24.13;10.43;;;17.80;99.90;;;17.22;100.00;96913.31;5065729;28;20028;-36
2023/07/02 07:32:54;;;;;;;19.20;9.95;;;17.70;99.90;;;17.20;100.00;96915.22;5066017;28;20027;-36
2023/07/02 07:35:21;;;;;;;19.40;9.35;;;17.60;99.90;;;17.42;100.00;96927.84;5064788;28;20398;-36
2023/07/02 07:37:47;;;;;;;16.80;8.40;;;17.70;99.90;;;17.69;100.00;96919.69;5063030;28;20046;-36
2023/07/02 07:40:14;;;;;;;17.85;9.48;;;17.90;99.90;;;17.84;100.00;96930.19;5064013;28;20111;-36
2023/07/02 07:42:42;;;;;;;22.00;10.35;;;18.10;99.90;;;18.22;100.00;96926.50;5062691;28;20059;-36
2023/07/02 07:45:09;;;;;;;18.95;10.70;;;18.40;99.90;;;18.35;100.00;96926.44;5061624;28;20196;-36
2023/07/02 07:47:35;;;;;;;25.63;11.73;;;18.60;99.90;;;18.27;96.24;96935.88;5065757;28;20019;-36
2023/07/02 07:50:01;;;;;;;19.15;10.85;;;18.70;99.90;;;18.16;100.00;96938.50;5061876;28;20047;-36
2023/07/02 07:52:27;;;;;;;21.83;11.40;;;18.50;99.90;;;18.11;93.00;96936.16;5062675;28;20048;-36
2023/07/02 07:54:53;;;;;;;22.30;10.70;;;18.50;99.90;;;18.40;97.68;96941.13;5061615;28;20032;-36
2023/07/02 07:57:19;;;;;;;20.50;10.68;;;18.60;99.90;;;18.65;90.14;96934.75;5055582;28;20497;-36
2023/07/02 07:59:44;;;;;;;23.88;11.45;;;18.90;99.90;;;18.70;88.79;96940.59;5063201;28;20035;-36
2023/07/02 08:02:10;;;;;;;19.38;10.70;;;19.00;99.90;;;18.72;97.91;96940.50;5061591;28;20058;-36
2023/07/02 08:04:36;;;;;;;26.15;11.13;;;19.10;99.90;;;18.76;89.08;96931.25;5062635;28;20027;-36
2023/07/02 08:07:04;;;;;;;25.85;12.68;;;19.10;99.90;;;18.65;87.10;96934.75;5063305;28;20036;-36
2023/07/02 08:09:29;;;;;;;22.45;11.43;;;19.00;99.90;;;18.48;87.78;96938.72;5066360;28;20032;-36
2023/07/02 08:11:55;;;;;;;23.20;11.52;;;18.90;99.90;;;18.44;88.44;96917.72;5060824;28;20118;-36
2023/07/02 08:14:21;;;;;;;26.65;11.85;;;18.80;99.90;;;18.61;90.88;96929.75;5061789;28;20036;-36
2023/07/02 08:16:47;;;;;;;21.42;11.77;;;18.90;99.90;;;18.73;89.70;96920.81;5064826;28;20090;-36
2023/07/02 08:19:12;;;;;;;27.50;11.35;;;19.00;99.90;;;18.83;78.44;96943.19;5062172;28;20410;-36
2023/07/02 08:21:38;;;;;;;21.52;11.15;;;19.10;99.90;;;18.86;79.31;96932.28;5063765;28;20373;-36
2023/07/02 08:24:04;;;;;;;24.27;12.77;;;19.20;99.90;;;18.88;79.57;96933.00;5055492;28;20034;-36
2023/07/02 08:26:30;;;;;;;20.35;11.02;;;19.20;99.90;;;18.89;81.97;96934.69;5056738;28;20086;-36
2023/07/02 08:28:56;;;;;;;26.02;12.18;;;19.20;99.90;;;18.89;81.12;96926.69;5062162;28;20032;-36
2023/07/02 08:31:22;;;;;;;23.33;12.13;;;19.10;99.90;;;19.03;78.87;96932.78;5060451;28;20083;-36
2023/07/02 08:33:47;;;;;;;21.15;10.98;;;19.30;99.90;;;19.26;78.45;96933.63;5054935;28;20513;-36
2023/07/02 08:36:13;;;;;;;21.50;10.93;;;19.50;99.90;;;19.47;82.54;96933.75;5058524;28;20482;-36
2023/07/02 08:38:41;;;;;;;20.05;10.88;;;19.60;99.90;;;19.65;79.00;96928.75;5059242;28;20065;-36
2023/07/02 08:41:07;;;;;;;20.58;10.60;;;19.80;99.90;;;19.63;74.68;96922.63;5060156;28;20032;-38
2023/07/02 08:43:35;;;;;;;21.80;9.98;;;19.90;99.90;;;19.64;82.35;96938.56;5060219;28;20417;-37
2023/07/02 08:46:01;;;;;;;18.63;11.13;;;19.90;99.90;;;19.63;69.65;96936.88;5063188;28;20461;-37
2023/07/02 08:48:29;;;;;;;18.63;10.25;;;19.90;99.90;;;19.61;66.22;96932.63;5063981;28;20042;-39
2023/07/02 08:50:58;;;;;;;17.73;9.82;;;19.90;99.90;;;19.64;70.07;96937.72;5067805;28;20032;-37
2023/07/02 08:53:29;;;;;;;21.23;10.60;;;19.90;99.90;;;19.53;62.52;96935.91;5062895;28;20068;-37
2023/07/02 08:55:58;;;;;;;19.73;9.48;;;19.90;99.90;;;19.62;65.43;96934.31;5065110;28;20032;-38
2023/07/02 08:58:23;;;;;;;18.63;8.95;;;19.80;99.90;;;19.85;69.59;96932.50;5062143;28;20662;-38
2023/07/02 09:01:09;;;;;;;21.42;10.80;;;20.00;99.90;;;20.02;66.02;96931.09;5068151;28;20028;-37
2023/07/02 09:03:37;;;;;;;20.70;10.10;;;20.20;99.90;;;20.19;60.34;96933.22;5070336;28;20473;-39
2023/07/02 09:06:04;;;;;;;17.60;9.82;;;20.40;99.90;;;20.20;59.21;96926.88;5067201;28;20020;-38
2023/07/02 09:08:30;;;;;;;15.95;9.32;;;20.50;99.90;;;20.31;65.85;96936.69;5069904;28;20051;-39
2023/07/02 09:11:16;;;;;;;18.10;9.90;;;20.60;99.90;;;20.34;56.25;96931.06;5066042;28;20553;-39
2023/07/02 09:13:58;;;;;;;18.42;9.60;;;20.60;99.90;;;20.26;58.58;96920.19;5068417;28;20089;-37
2023/07/02 09:16:33;;;;;;;19.33;10.07;;;20.60;99.90;;;20.43;63.09;96939.31;5066809;28;20032;-38
2023/07/02 09:19:07;;;;;;;18.80;9.75;;;20.60;99.90;;;20.49;63.55;96938.78;5066166;28;20799;-36
2023/07/02 09:21:43;;;;;;;17.15;9.40;;;20.70;99.90;;;20.43;57.70;96939.31;5067806;28;20058;-36
2023/07/02 09:24:22;;;;;;;17.80;9.68;;;20.70;99.90;;;20.43;57.78;96933.97;5069165;28;20027;-36
2023/07/02 09:26:53;;;;;;;18.00;10.25;;;20.70;99.90;;;20.55;61.26;96935.63;5064899;28;20036;-36
2023/07/02 09:29:33;;;;;;;20.77;10.35;;;20.80;99.90;;;20.57;63.74;96930.97;5067352;28;20033;-36
2023/07/02 09:32:07;;;;;;;18.98;9.75;;;20.80;99.90;;;20.58;67.32;96927.28;5064725;28;20032;-36
2023/07/02 09:34:35;;;;;;;18.92;9.55;;;20.80;99.90;;;20.62;61.91;96936.81;5064849;28;20028;-36
2023/07/02 09:37:04;;;;;;;18.83;9.73;;;20.80;99.90;;;20.71;58.97;96933.34;5067694;28;20042;-39
2023/07/02 09:39:33;;;;;;;15.85;9.88;;;20.90;99.90;;;20.69;64.67;96935.31;5063176;28;20020;-40
2023/07/02 09:42:04;;;;;;;23.95;10.43;;;21.00;99.90;;;20.57;60.19;96936.31;5062869;28;20059;-39
2023/07/02 09:44:31;;;;;;;18.50;10.35;;;20.90;99.90;;;20.59;60.16;96935.22;5071286;28;20520;-39
2023/07/02 09:47:11;;;;;;;19.38;10.27;;;20.90;99.90;;;20.63;57.69;96929.63;5065907;28;20035;-39
2023/07/02 09:50:05;;;;;;;17.02;9.80;;;20.90;99.90;;;20.45;66.30;96926.66;5069831;28;20500;-40
2023/07/02 09:52:32;;;;;;;19.27;10.10;;;20.70;99.90;;;20.51;61.35;96929.66;5069929;28;20059;-39
2023/07/02 09:54:57;;;;;;;15.48;9.35;;;20.70;99.90;;;20.53;55.45;96932.19;5063203;28;20698;-38
2023/07/02 09:57:23;;;;;;;19.05;9.90;;;20.70;99.60;;;20.55;60.59;96930.25;5065658;28;20040;-38
2023/07/02 09:59:50;;;;;;;18.08;10.07;;;20.80;99.90;;;20.79;58.82;96927.34;5065023;28;20098;-38
2023/07/02 10:02:16;;;;;;;20.92;10.27;;;21.00;99.90;;;20.99;60.90;96912.19;5058484;28;20044;-36
2023/07/02 10:04:46;;;;;;;20.48;10.40;;;21.20;99.90;;;21.11;58.02;96929.06;5067234;28;20054;-37
2023/07/02 10:07:25;;;;;;;16.48;9.63;;;21.40;99.90;;;21.54;59.20;96928.00;5065515;28;20277;-34
2023/07/02 10:09:51;;;;;;;18.52;9.50;;;21.70;99.90;;;22.01;54.61;96922.00;5065265;28;20032;-34